sensor_id;sensor_type;location;lat;lon;timestamp;pressure;altitude;pressure_sealevel;temperature;humidity
76603;BME280;65075;48.390;17.598;2023-05-10T00:00:21;99805.78;;;12.84;47.49
76603;BME280;65075;48.390;17.598;2023-05-10T00:02:48;99795.00;;;13.23;46.16
76603;BME280;65075;48.390;17.598;2023-05-10T00:05:13;99791.56;;;12.82;47.12
76603;BME280;65075;48.390;17.598;2023-05-10T00:07:39;99798.81;;;12.33;48.05
76603;BME280;65075;48.390;17.598;2023-05-10T00:10:05;99788.38;;;12.40;48.41
76603;BME280;65075;48.390;17.598;2023-05-10T00:12:30;99767.56;;;12.54;47.34
76603;BME280;65075;48.390;17.598;2023-05-10T00:14:57;99775.84;;;12.24;48.36
76603;BME280;65075;48.390;17.598;2023-05-10T00:17:22;99771.88;;;12.80;47.39
76603;BME280;65075;48.390;17.598;2023-05-10T00:19:48;99778.53;;;12.39;47.74
76603;BME280;65075;48.390;17.598;2023-05-10T00:22:14;99742.69;;;11.55;49.02
76603;BME280;65075;48.390;17.598;2023-05-10T00:24:39;99777.47;;;11.89;48.85
76603;BME280;65075;48.390;17.598;2023-05-10T00:27:05;99781.25;;;12.54;47.79
76603;BME280;65075;48.390;17.598;2023-05-10T00:29:30;99750.69;;;11.86;49.07
76603;BME280;65075;48.390;17.598;2023-05-10T00:31:57;99781.81;;;12.36;48.29
76603;BME280;65075;48.390;17.598;2023-05-10T00:34:22;99777.47;;;12.10;49.04
76603;BME280;65075;48.390;17.598;2023-05-10T00:36:48;99770.91;;;12.21;48.63
76603;BME280;65075;48.390;17.598;2023-05-10T00:39:13;99766.50;;;12.40;48.31
76603;BME280;65075;48.390;17.598;2023-05-10T00:41:39;99774.66;;;12.65;47.94
76603;BME280;65075;48.390;17.598;2023-05-10T00:44:04;99742.47;;;11.91;49.45
76603;BME280;65075;48.390;17.598;2023-05-10T00:46:31;99772.53;;;12.17;49.17
76603;BME280;65075;48.390;17.598;2023-05-10T00:48:57;99761.06;;;11.89;49.76
76603;BME280;65075;48.390;17.598;2023-05-10T00:51:22;99768.19;;;12.16;49.33
76603;BME280;65075;48.390;17.598;2023-05-10T00:53:48;99759.38;;;12.44;48.54
76603;BME280;65075;48.390;17.598;2023-05-10T00:56:15;99759.97;;;11.85;50.26
76603;BME280;65075;48.390;17.598;2023-05-10T00:58:42;99748.50;;;11.88;49.27
76603;BME280;65075;48.390;17.598;2023-05-10T01:01:08;99756.13;;;12.17;49.13
76603;BME280;65075;48.390;17.598;2023-05-10T01:03:34;99752.03;;;12.09;49.29
76603;BME280;65075;48.390;17.598;2023-05-10T01:06:01;99760.50;;;12.33;49.07
76603;BME280;65075;48.390;17.598;2023-05-10T01:08:27;99753.69;;;11.70;50.18
76603;BME280;65075;48.390;17.598;2023-05-10T01:10:54;99747.06;;;11.40;51.88
76603;BME280;65075;48.390;17.598;2023-05-10T01:13:36;99741.88;;;11.54;51.14
76603;BME280;65075;48.390;17.598;2023-05-10T01:16:03;99752.50;;;11.35;52.00
76603;BME280;65075;48.390;17.598;2023-05-10T01:18:36;99755.78;;;11.42;52.27
76603;BME280;65075;48.390;17.598;2023-05-10T01:29:40;99738.59;;;11.47;52.37
76603;BME280;65075;48.390;17.598;2023-05-10T01:35:03;99728.06;;;10.93;53.68
76603;BME280;65075;48.390;17.598;2023-05-10T01:37:42;99736.38;;;11.34;52.35
76603;BME280;65075;48.390;17.598;2023-05-10T01:40:23;99723.53;;;11.24;53.25
76603;BME280;65075;48.390;17.598;2023-05-10T01:42:58;99718.31;;;11.13;52.42
76603;BME280;65075;48.390;17.598;2023-05-10T01:48:47;99721.34;;;11.41;52.32
76603;BME280;65075;48.390;17.598;2023-05-10T01:51:20;99725.88;;;10.85;53.96
76603;BME280;65075;48.390;17.598;2023-05-10T01:53:48;99723.03;;;11.53;52.62
76603;BME280;65075;48.390;17.598;2023-05-10T01:56:19;99725.38;;;11.04;53.12
76603;BME280;65075;48.390;17.598;2023-05-10T01:58:51;99734.75;;;11.33;52.87
76603;BME280;65075;48.390;17.598;2023-05-10T02:01:20;99708.56;;;10.55;55.52
76603;BME280;65075;48.390;17.598;2023-05-10T02:03:49;99728.81;;;10.69;55.22
76603;BME280;65075;48.390;17.598;2023-05-10T02:06:19;99727.91;;;11.25;53.87
76603;BME280;65075;48.390;17.598;2023-05-10T02:08:49;99713.72;;;11.48;52.99
76603;BME280;65075;48.390;17.598;2023-05-10T02:11:17;99715.59;;;11.28;53.96
76603;BME280;65075;48.390;17.598;2023-05-10T02:13:46;99719.72;;;11.40;53.56
76603;BME280;65075;48.390;17.598;2023-05-10T02:16:14;99717.16;;;10.93;55.73
76603;BME280;65075;48.390;17.598;2023-05-10T02:18:41;99723.97;;;10.91;55.69
76603;BME280;65075;48.390;17.598;2023-05-10T02:21:09;99692.06;;;11.02;55.11
76603;BME280;65075;48.390;17.598;2023-05-10T02:23:37;99717.19;;;11.04;55.65
76603;BME280;65075;48.390;17.598;2023-05-10T02:26:04;99686.28;;;10.21;58.19
76603;BME280;65075;48.390;17.598;2023-05-10T02:28:32;99708.31;;;10.66;57.26
76603;BME280;65075;48.390;17.598;2023-05-10T02:30:58;99714.72;;;10.97;56.50
76603;BME280;65075;48.390;17.598;2023-05-10T02:33:27;99709.66;;;11.61;55.40
76603;BME280;65075;48.390;17.598;2023-05-10T02:35:54;99680.88;;;11.03;56.33
76603;BME280;65075;48.390;17.598;2023-05-10T02:38:22;99711.16;;;11.02;57.27
76603;BME280;65075;48.390;17.598;2023-05-10T02:40:51;99707.53;;;10.71;58.70
76603;BME280;65075;48.390;17.598;2023-05-10T02:43:19;99673.22;;;11.05;56.83
76603;BME280;65075;48.390;17.598;2023-05-10T02:45:48;99695.88;;;10.96;57.76
76603;BME280;65075;48.390;17.598;2023-05-10T02:48:15;99696.97;;;11.00;57.87
76603;BME280;65075;48.390;17.598;2023-05-10T02:50:44;99703.06;;;11.27;57.22
76603;BME280;65075;48.390;17.598;2023-05-10T02:53:15;99700.53;;;11.00;58.14
76603;BME280;65075;48.390;17.598;2023-05-10T02:55:45;99706.28;;;10.99;58.72
76603;BME280;65075;48.390;17.598;2023-05-10T02:58:14;99713.06;;;10.96;58.88
76603;BME280;65075;48.390;17.598;2023-05-10T03:00:40;99701.59;;;10.99;58.90
76603;BME280;65075;48.390;17.598;2023-05-10T03:03:05;99700.81;;;10.99;58.64
76603;BME280;65075;48.390;17.598;2023-05-10T03:05:32;99711.63;;;10.73;59.95
76603;BME280;65075;48.390;17.598;2023-05-10T03:07:59;99716.19;;;11.55;57.65
76603;BME280;65075;48.390;17.598;2023-05-10T03:10:31;99706.69;;;10.65;60.53
76603;BME280;65075;48.390;17.598;2023-05-10T03:13:17;99707.94;;;11.10;60.04
76603;BME280;65075;48.390;17.598;2023-05-10T03:16:01;99709.31;;;11.17;59.56
76603;BME280;65075;48.390;17.598;2023-05-10T03:18:40;99718.63;;;11.21;59.25
76603;BME280;65075;48.390;17.598;2023-05-10T03:21:11;99716.97;;;11.15;59.90
76603;BME280;65075;48.390;17.598;2023-05-10T03:23:53;99708.47;;;11.22;59.54
76603;BME280;65075;48.390;17.598;2023-05-10T03:26:26;99715.59;;;11.18;60.22
76603;BME280;65075;48.390;17.598;2023-05-10T03:28:53;99703.34;;;11.50;59.10
76603;BME280;65075;48.390;17.598;2023-05-10T03:31:19;99717.25;;;11.34;59.40
76603;BME280;65075;48.390;17.598;2023-05-10T03:33:50;99717.78;;;11.26;59.56
76603;BME280;65075;48.390;17.598;2023-05-10T03:36:15;99716.84;;;10.85;61.37
76603;BME280;65075;48.390;17.598;2023-05-10T03:38:41;99724.28;;;11.00;61.20
76603;BME280;65075;48.390;17.598;2023-05-10T03:41:07;99693.03;;;10.60;61.81
76603;BME280;65075;48.390;17.598;2023-05-10T03:43:32;99718.34;;;11.23;60.49
76603;BME280;65075;48.390;17.598;2023-05-10T03:45:58;99722.72;;;11.29;60.22
76603;BME280;65075;48.390;17.598;2023-05-10T03:48:23;99713.44;;;11.30;60.27
76603;BME280;65075;48.390;17.598;2023-05-10T03:50:49;99724.91;;;11.27;60.34
76603;BME280;65075;48.390;17.598;2023-05-10T03:53:15;99726.03;;;11.46;59.89
76603;BME280;65075;48.390;17.598;2023-05-10T03:55:41;99727.84;;;11.05;60.84
76603;BME280;65075;48.390;17.598;2023-05-10T03:58:06;99724.34;;;11.25;60.83
76603;BME280;65075;48.390;17.598;2023-05-10T04:00:32;99726.06;;;11.91;58.70
76603;BME280;65075;48.390;17.598;2023-05-10T04:02:58;99729.06;;;12.00;58.72
76603;BME280;65075;48.390;17.598;2023-05-10T04:05:23;99733.72;;;11.74;59.99
76603;BME280;65075;48.390;17.598;2023-05-10T04:07:49;99724.06;;;12.47;57.00
76603;BME280;65075;48.390;17.598;2023-05-10T04:10:15;99720.31;;;12.08;58.29
76603;BME280;65075;48.390;17.598;2023-05-10T04:12:42;99737.78;;;12.22;57.90
76603;BME280;65075;48.390;17.598;2023-05-10T04:15:07;99693.25;;;11.91;58.51
76603;BME280;65075;48.390;17.598;2023-05-10T04:17:33;99741.94;;;11.94;58.45
76603;BME280;65075;48.390;17.598;2023-05-10T04:19:59;99737.94;;;12.81;56.47
76603;BME280;65075;48.390;17.598;2023-05-10T04:22:25;99737.97;;;12.66;57.28
76603;BME280;65075;48.390;17.598;2023-05-10T04:24:50;99693.72;;;12.34;56.86
76603;BME280;65075;48.390;17.598;2023-05-10T04:27:16;99750.38;;;13.17;55.94
76603;BME280;65075;48.390;17.598;2023-05-10T04:29:41;99720.47;;;12.57;57.15
76603;BME280;65075;48.390;17.598;2023-05-10T04:32:07;99751.38;;;12.73;57.18
76603;BME280;65075;48.390;17.598;2023-05-10T04:34:33;99751.50;;;13.11;56.01
76603;BME280;65075;48.390;17.598;2023-05-10T04:36:59;99717.84;;;13.01;56.26
76603;BME280;65075;48.390;17.598;2023-05-10T04:39:27;99733.69;;;13.58;54.63
76603;BME280;65075;48.390;17.598;2023-05-10T04:41:53;99757.78;;;11.97;59.87
76603;BME280;65075;48.390;17.598;2023-05-10T04:44:18;99755.13;;;13.51;55.23
76603;BME280;65075;48.390;17.598;2023-05-10T04:46:44;99754.22;;;13.16;56.46
76603;BME280;65075;48.390;17.598;2023-05-10T04:49:10;99769.78;;;13.70;54.42
76603;BME280;65075;48.390;17.598;2023-05-10T04:51:35;99752.75;;;13.78;55.02
76603;BME280;65075;48.390;17.598;2023-05-10T04:54:02;99774.22;;;13.66;55.10
76603;BME280;65075;48.390;17.598;2023-05-10T04:56:28;99779.63;;;14.10;54.26
76603;BME280;65075;48.390;17.598;2023-05-10T04:58:53;99761.78;;;14.12;53.63
76603;BME280;65075;48.390;17.598;2023-05-10T05:01:19;99766.47;;;13.73;55.50
76603;BME280;65075;48.390;17.598;2023-05-10T05:03:45;99772.50;;;14.43;53.85
76603;BME280;65075;48.390;17.598;2023-05-10T05:06:10;99777.28;;;13.98;54.86
76603;BME280;65075;48.390;17.598;2023-05-10T05:08:36;99763.91;;;14.78;52.32
76603;BME280;65075;48.390;17.598;2023-05-10T05:11:01;99778.09;;;14.32;53.78
76603;BME280;65075;48.390;17.598;2023-05-10T05:13:27;99770.44;;;14.24;53.64
76603;BME280;65075;48.390;17.598;2023-05-10T05:15:52;99777.94;;;13.80;54.59
76603;BME280;65075;48.390;17.598;2023-05-10T05:18:18;99763.28;;;15.05;51.77
76603;BME280;65075;48.390;17.598;2023-05-10T05:20:44;99781.28;;;15.16;51.16
76603;BME280;65075;48.390;17.598;2023-05-10T05:23:09;99783.28;;;14.63;52.22
76603;BME280;65075;48.390;17.598;2023-05-10T05:25:35;99794.59;;;15.88;49.95
76603;BME280;65075;48.390;17.598;2023-05-10T05:28:01;99790.06;;;15.18;51.21
76603;BME280;65075;48.390;17.598;2023-05-10T05:30:26;99790.19;;;16.06;48.84
76603;BME280;65075;48.390;17.598;2023-05-10T05:32:52;99777.72;;;15.95;49.51
76603;BME280;65075;48.390;17.598;2023-05-10T05:35:18;99782.06;;;15.64;50.04
76603;BME280;65075;48.390;17.598;2023-05-10T05:37:43;99793.03;;;15.21;50.93
76603;BME280;65075;48.390;17.598;2023-05-10T05:40:12;99790.25;;;16.01;49.33
76603;BME280;65075;48.390;17.598;2023-05-10T05:42:38;99797.66;;;15.50;49.49
76603;BME280;65075;48.390;17.598;2023-05-10T05:45:04;99765.75;;;15.67;49.60
76603;BME280;65075;48.390;17.598;2023-05-10T05:47:30;99786.56;;;16.24;48.35
76603;BME280;65075;48.390;17.598;2023-05-10T05:49:56;99793.53;;;16.03;49.58
76603;BME280;65075;48.390;17.598;2023-05-10T05:52:21;99790.59;;;16.32;48.13
76603;BME280;65075;48.390;17.598;2023-05-10T05:54:47;99791.16;;;15.96;48.98
76603;BME280;65075;48.390;17.598;2023-05-10T05:57:12;99795.00;;;17.06;47.39
76603;BME280;65075;48.390;17.598;2023-05-10T05:59:38;99813.53;;;15.90;49.08
76603;BME280;65075;48.390;17.598;2023-05-10T06:02:09;99818.13;;;16.13;49.01
76603;BME280;65075;48.390;17.598;2023-05-10T06:04:35;99810.72;;;16.46;47.64
76603;BME280;65075;48.390;17.598;2023-05-10T06:07:01;99802.59;;;16.54;47.21
76603;BME280;65075;48.390;17.598;2023-05-10T06:09:26;99803.34;;;16.09;49.32
76603;BME280;65075;48.390;17.598;2023-05-10T06:11:52;99807.97;;;17.05;46.95
76603;BME280;65075;48.390;17.598;2023-05-10T06:14:20;99816.75;;;17.07;46.66
76603;BME280;65075;48.390;17.598;2023-05-10T06:16:46;99796.13;;;17.32;46.35
76603;BME280;65075;48.390;17.598;2023-05-10T06:19:11;99798.97;;;17.54;46.50
76603;BME280;65075;48.390;17.598;2023-05-10T06:21:37;99817.06;;;18.18;43.78
76603;BME280;65075;48.390;17.598;2023-05-10T06:24:03;99818.66;;;16.47;47.82
76603;BME280;65075;48.390;17.598;2023-05-10T06:26:32;99817.84;;;16.93;46.99
76603;BME280;65075;48.390;17.598;2023-05-10T06:28:57;99811.53;;;16.92;46.66
76603;BME280;65075;48.390;17.598;2023-05-10T06:31:23;99815.19;;;17.42;45.86
76603;BME280;65075;48.390;17.598;2023-05-10T06:33:48;99820.47;;;17.80;44.15
76603;BME280;65075;48.390;17.598;2023-05-10T06:36:14;99817.13;;;17.42;45.51
76603;BME280;65075;48.390;17.598;2023-05-10T06:38:40;99822.97;;;17.27;45.56
76603;BME280;65075;48.390;17.598;2023-05-10T06:41:05;99804.66;;;17.44;45.84
76603;BME280;65075;48.390;17.598;2023-05-10T06:43:31;99805.66;;;17.76;45.14
76603;BME280;65075;48.390;17.598;2023-05-10T06:45:57;99815.84;;;17.89;43.76
76603;BME280;65075;48.390;17.598;2023-05-10T06:48:22;99789.97;;;17.49;45.02
76603;BME280;65075;48.390;17.598;2023-05-10T06:50:48;99802.53;;;16.87;46.37
76603;BME280;65075;48.390;17.598;2023-05-10T06:53:14;99810.84;;;17.55;45.92
76603;BME280;65075;48.390;17.598;2023-05-10T06:55:39;99798.56;;;16.93;46.48
76603;BME280;65075;48.390;17.598;2023-05-10T06:58:05;99810.59;;;15.68;50.07
76603;BME280;65075;48.390;17.598;2023-05-10T07:00:31;99795.41;;;18.34;44.79
76603;BME280;65075;48.390;17.598;2023-05-10T07:02:57;99801.38;;;18.72;43.61
76603;BME280;65075;48.390;17.598;2023-05-10T07:05:22;99788.22;;;18.77;43.13
76603;BME280;65075;48.390;17.598;2023-05-10T07:07:48;99792.69;;;18.43;44.88
76603;BME280;65075;48.390;17.598;2023-05-10T07:10:14;99777.56;;;17.96;44.69
76603;BME280;65075;48.390;17.598;2023-05-10T07:12:39;99804.50;;;18.88;44.05
76603;BME280;65075;48.390;17.598;2023-05-10T07:15:05;99794.28;;;19.36;41.33
76603;BME280;65075;48.390;17.598;2023-05-10T07:17:31;99812.03;;;17.49;45.10
76603;BME280;65075;48.390;17.598;2023-05-10T07:19:59;99808.78;;;18.94;43.13
76603;BME280;65075;48.390;17.598;2023-05-10T07:22:25;99807.72;;;18.28;43.85
76603;BME280;65075;48.390;17.598;2023-05-10T07:24:51;99791.47;;;19.19;42.33
76603;BME280;65075;48.390;17.598;2023-05-10T07:27:16;99819.03;;;18.62;43.59
76603;BME280;65075;48.390;17.598;2023-05-10T07:29:42;99785.72;;;19.55;41.09
76603;BME280;65075;48.390;17.598;2023-05-10T07:32:07;99797.22;;;18.92;44.17
76603;BME280;65075;48.390;17.598;2023-05-10T07:34:33;99797.41;;;18.64;45.26
76603;BME280;65075;48.390;17.598;2023-05-10T07:36:59;99805.03;;;18.98;43.20
76603;BME280;65075;48.390;17.598;2023-05-10T07:39:25;99794.69;;;19.60;42.01
76603;BME280;65075;48.390;17.598;2023-05-10T07:41:51;99799.06;;;19.05;43.90
76603;BME280;65075;48.390;17.598;2023-05-10T07:44:16;99764.69;;;19.45;42.32
76603;BME280;65075;48.390;17.598;2023-05-10T07:46:44;99800.25;;;18.51;44.02
76603;BME280;65075;48.390;17.598;2023-05-10T07:49:10;99823.72;;;19.23;42.63
76603;BME280;65075;48.390;17.598;2023-05-10T07:51:38;99781.00;;;19.89;41.08
76603;BME280;65075;48.390;17.598;2023-05-10T07:54:04;99806.75;;;19.90;40.35
76603;BME280;65075;48.390;17.598;2023-05-10T07:56:31;99809.22;;;19.91;41.18
76603;BME280;65075;48.390;17.598;2023-05-10T07:58:58;99822.06;;;19.87;40.54
76603;BME280;65075;48.390;17.598;2023-05-10T08:01:25;99797.13;;;17.36;45.70
76603;BME280;65075;48.390;17.598;2023-05-10T08:03:50;99813.47;;;17.05;46.97
76603;BME280;65075;48.390;17.598;2023-05-10T08:06:20;99798.94;;;20.00;41.94
76603;BME280;65075;48.390;17.598;2023-05-10T08:08:47;99810.03;;;20.35;39.80
76603;BME280;65075;48.390;17.598;2023-05-10T08:11:18;99805.16;;;20.32;38.97
76603;BME280;65075;48.390;17.598;2023-05-10T08:13:44;99821.09;;;20.18;39.48
76603;BME280;65075;48.390;17.598;2023-05-10T08:16:10;99813.09;;;19.82;40.84
76603;BME280;65075;48.390;17.598;2023-05-10T08:18:37;99801.41;;;21.29;38.90
76603;BME280;65075;48.390;17.598;2023-05-10T08:21:02;99797.91;;;18.97;41.21
76603;BME280;65075;48.390;17.598;2023-05-10T08:23:28;99775.81;;;20.31;40.98
76603;BME280;65075;48.390;17.598;2023-05-10T08:25:54;99812.63;;;19.71;41.89
76603;BME280;65075;48.390;17.598;2023-05-10T08:28:19;99803.53;;;20.31;40.03
76603;BME280;65075;48.390;17.598;2023-05-10T08:30:45;99804.72;;;20.76;38.93
76603;BME280;65075;48.390;17.598;2023-05-10T08:33:10;99794.00;;;21.13;38.85
76603;BME280;65075;48.390;17.598;2023-05-10T08:35:36;99805.47;;;20.39;39.60
76603;BME280;65075;48.390;17.598;2023-05-10T08:38:01;99803.06;;;21.30;38.41
76603;BME280;65075;48.390;17.598;2023-05-10T08:40:27;99799.63;;;20.32;39.86
76603;BME280;65075;48.390;17.598;2023-05-10T08:43:10;99808.50;;;20.72;38.63
76603;BME280;65075;48.390;17.598;2023-05-10T08:45:45;99802.28;;;18.98;40.08
76603;BME280;65075;48.390;17.598;2023-05-10T08:48:12;99800.28;;;20.29;39.99
76603;BME280;65075;48.390;17.598;2023-05-10T08:50:39;99825.47;;;19.76;40.79
76603;BME280;65075;48.390;17.598;2023-05-10T08:53:10;99814.53;;;20.65;39.54
76603;BME280;65075;48.390;17.598;2023-05-10T08:55:37;99789.31;;;19.64;40.07
76603;BME280;65075;48.390;17.598;2023-05-10T08:58:06;99827.16;;;19.29;43.04
76603;BME280;65075;48.390;17.598;2023-05-10T09:00:35;99791.03;;;19.34;41.99
76603;BME280;65075;48.390;17.598;2023-05-10T09:03:02;99822.25;;;19.99;39.99
76603;BME280;65075;48.390;17.598;2023-05-10T09:05:28;99828.38;;;17.45;44.79
76603;BME280;65075;48.390;17.598;2023-05-10T09:07:54;99782.00;;;19.93;38.68
76603;BME280;65075;48.390;17.598;2023-05-10T09:10:20;99809.03;;;19.88;40.47
76603;BME280;65075;48.390;17.598;2023-05-10T09:12:46;99778.22;;;19.55;39.12
76603;BME280;65075;48.390;17.598;2023-05-10T09:15:15;99814.19;;;20.75;38.93
76603;BME280;65075;48.390;17.598;2023-05-10T09:17:42;99819.88;;;19.41;40.43
76603;BME280;65075;48.390;17.598;2023-05-10T09:20:09;99769.53;;;20.68;37.72
76603;BME280;65075;48.390;17.598;2023-05-10T09:22:35;99810.03;;;18.88;42.80
76603;BME280;65075;48.390;17.598;2023-05-10T09:25:19;99823.16;;;20.72;38.50
76603;BME280;65075;48.390;17.598;2023-05-10T09:27:47;99825.41;;;21.34;36.97
76603;BME280;65075;48.390;17.598;2023-05-10T09:30:16;99807.19;;;19.40;40.16
76603;BME280;65075;48.390;17.598;2023-05-10T09:32:46;99817.59;;;20.81;38.45
76603;BME280;65075;48.390;17.598;2023-05-10T09:35:18;99825.78;;;19.18;39.89
76603;BME280;65075;48.390;17.598;2023-05-10T09:37:48;99808.34;;;18.03;42.14
76603;BME280;65075;48.390;17.598;2023-05-10T09:40:23;99818.47;;;18.82;41.16
76603;BME280;65075;48.390;17.598;2023-05-10T09:42:59;99809.91;;;18.40;42.45
76603;BME280;65075;48.390;17.598;2023-05-10T09:45:28;99806.84;;;19.42;41.27
76603;BME280;65075;48.390;17.598;2023-05-10T09:47:55;99793.72;;;19.82;39.15
76603;BME280;65075;48.390;17.598;2023-05-10T09:50:24;99800.00;;;18.92;42.43
76603;BME280;65075;48.390;17.598;2023-05-10T09:52:55;99790.28;;;19.59;40.99
76603;BME280;65075;48.390;17.598;2023-05-10T09:55:45;99825.50;;;19.28;40.47
76603;BME280;65075;48.390;17.598;2023-05-10T09:58:14;99808.22;;;18.52;42.36
76603;BME280;65075;48.390;17.598;2023-05-10T10:00:42;99807.81;;;19.37;41.71
76603;BME280;65075;48.390;17.598;2023-05-10T10:03:19;99796.66;;;18.28;43.61
76603;BME280;65075;48.390;17.598;2023-05-10T10:05:46;99796.34;;;20.30;38.60
76603;BME280;65075;48.390;17.598;2023-05-10T10:08:13;99802.31;;;19.07;40.26
76603;BME280;65075;48.390;17.598;2023-05-10T10:10:40;99801.31;;;19.42;40.26
76603;BME280;65075;48.390;17.598;2023-05-10T10:13:07;99774.50;;;20.03;38.75
76603;BME280;65075;48.390;17.598;2023-05-10T10:15:34;99787.84;;;19.10;41.16
76603;BME280;65075;48.390;17.598;2023-05-10T10:18:00;99785.59;;;21.30;36.49
76603;BME280;65075;48.390;17.598;2023-05-10T10:20:27;99786.03;;;22.44;35.06
76603;BME280;65075;48.390;17.598;2023-05-10T10:22:56;99795.09;;;19.36;39.10
76603;BME280;65075;48.390;17.598;2023-05-10T10:25:22;99783.16;;;17.82;42.59
76603;BME280;65075;48.390;17.598;2023-05-10T10:30:50;99794.25;;;18.79;40.80
76603;BME280;65075;48.390;17.598;2023-05-10T10:33:40;99803.50;;;18.83;41.65
76603;BME280;65075;48.390;17.598;2023-05-10T10:36:12;99763.19;;;18.82;40.81
76603;BME280;65075;48.390;17.598;2023-05-10T10:41:11;99781.09;;;20.70;37.32
76603;BME280;65075;48.390;17.598;2023-05-10T10:50:06;99775.59;;;18.94;41.44
76603;BME280;65075;48.390;17.598;2023-05-10T10:52:34;99786.72;;;19.76;39.60
76603;BME280;65075;48.390;17.598;2023-05-10T10:55:13;99765.03;;;20.04;38.35
76603;BME280;65075;48.390;17.598;2023-05-10T10:57:50;99769.63;;;18.69;40.83
76603;BME280;65075;48.390;17.598;2023-05-10T11:00:32;99765.25;;;20.79;36.85
76603;BME280;65075;48.390;17.598;2023-05-10T11:03:08;99776.47;;;20.28;38.46
76603;BME280;65075;48.390;17.598;2023-05-10T11:05:42;99768.78;;;20.08;38.54
76603;BME280;65075;48.390;17.598;2023-05-10T11:08:28;99750.88;;;19.79;38.97
76603;BME280;65075;48.390;17.598;2023-05-10T11:15:55;99764.25;;;20.75;36.92
76603;BME280;65075;48.390;17.598;2023-05-10T11:18:30;99756.63;;;20.64;37.13
76603;BME280;65075;48.390;17.598;2023-05-10T11:20:58;99764.06;;;20.34;38.03
76603;BME280;65075;48.390;17.598;2023-05-10T11:23:49;99774.09;;;20.64;36.20
76603;BME280;65075;48.390;17.598;2023-05-10T11:26:16;99755.84;;;19.26;39.46
76603;BME280;65075;48.390;17.598;2023-05-10T11:28:48;99768.06;;;19.33;39.02
76603;BME280;65075;48.390;17.598;2023-05-10T11:31:19;99769.44;;;19.96;37.59
76603;BME280;65075;48.390;17.598;2023-05-10T11:33:47;99765.19;;;19.47;37.83
76603;BME280;65075;48.390;17.598;2023-05-10T11:36:21;99759.53;;;19.13;39.06
76603;BME280;65075;48.390;17.598;2023-05-10T11:38:48;99764.91;;;19.91;38.57
76603;BME280;65075;48.390;17.598;2023-05-10T11:41:18;99765.03;;;19.78;38.63
76603;BME280;65075;48.390;17.598;2023-05-10T11:43:46;99754.59;;;20.18;38.30
76603;BME280;65075;48.390;17.598;2023-05-10T11:46:20;99758.78;;;20.58;37.21
76603;BME280;65075;48.390;17.598;2023-05-10T11:48:51;99749.75;;;20.15;37.79
76603;BME280;65075;48.390;17.598;2023-05-10T11:51:25;99741.59;;;20.73;37.55
76603;BME280;65075;48.390;17.598;2023-05-10T11:53:53;99746.47;;;19.61;38.71
76603;BME280;65075;48.390;17.598;2023-05-10T11:56:19;99744.88;;;19.94;37.39
76603;BME280;65075;48.390;17.598;2023-05-10T11:58:56;99741.09;;;19.48;38.54
76603;BME280;65075;48.390;17.598;2023-05-10T12:01:24;99729.69;;;19.75;38.68
76603;BME280;65075;48.390;17.598;2023-05-10T12:03:52;99736.22;;;20.77;38.86
76603;BME280;65075;48.390;17.598;2023-05-10T12:06:20;99702.66;;;20.61;37.34
76603;BME280;65075;48.390;17.598;2023-05-10T12:08:47;99730.66;;;20.13;36.08
76603;BME280;65075;48.390;17.598;2023-05-10T12:11:15;99736.53;;;20.20;39.04
76603;BME280;65075;48.390;17.598;2023-05-10T12:13:43;99745.28;;;20.48;38.41
76603;BME280;65075;48.390;17.598;2023-05-10T12:16:24;99728.84;;;20.43;39.33
76603;BME280;65075;48.390;17.598;2023-05-10T12:18:51;99728.06;;;20.08;38.45
76603;BME280;65075;48.390;17.598;2023-05-10T12:21:20;99746.47;;;19.44;37.00
76603;BME280;65075;48.390;17.598;2023-05-10T12:26:13;99704.91;;;20.04;37.97
76603;BME280;65075;48.390;17.598;2023-05-10T12:28:39;99705.56;;;19.32;38.93
76603;BME280;65075;48.390;17.598;2023-05-10T12:31:06;99731.97;;;20.07;38.34
76603;BME280;65075;48.390;17.598;2023-05-10T12:33:40;99736.03;;;20.10;37.49
76603;BME280;65075;48.390;17.598;2023-05-10T12:36:10;99731.34;;;19.93;37.71
76603;BME280;65075;48.390;17.598;2023-05-10T12:38:38;99733.81;;;19.77;39.71
76603;BME280;65075;48.390;17.598;2023-05-10T12:41:06;99728.16;;;20.54;37.36
76603;BME280;65075;48.390;17.598;2023-05-10T12:43:33;99716.72;;;20.56;35.53
76603;BME280;65075;48.390;17.598;2023-05-10T12:46:13;99711.75;;;20.70;37.07
76603;BME280;65075;48.390;17.598;2023-05-10T12:48:40;99733.44;;;20.05;38.60
76603;BME280;65075;48.390;17.598;2023-05-10T12:51:08;99700.25;;;19.70;37.97
76603;BME280;65075;48.390;17.598;2023-05-10T12:53:35;99711.59;;;20.29;37.70
76603;BME280;65075;48.390;17.598;2023-05-10T12:56:01;99667.19;;;19.74;37.96
76603;BME280;65075;48.390;17.598;2023-05-10T12:58:27;99711.59;;;20.12;37.57
76603;BME280;65075;48.390;17.598;2023-05-10T13:00:52;99704.59;;;20.14;37.36
76603;BME280;65075;48.390;17.598;2023-05-10T13:03:18;99709.63;;;20.04;37.24
76603;BME280;65075;48.390;17.598;2023-05-10T13:05:44;99699.47;;;20.42;37.61
76603;BME280;65075;48.390;17.598;2023-05-10T13:08:10;99710.66;;;19.90;37.69
76603;BME280;65075;48.390;17.598;2023-05-10T13:10:35;99697.56;;;20.17;38.85
76603;BME280;65075;48.390;17.598;2023-05-10T13:13:01;99660.97;;;21.16;35.79
76603;BME280;65075;48.390;17.598;2023-05-10T13:15:28;99694.38;;;20.52;36.61
76603;BME280;65075;48.390;17.598;2023-05-10T13:17:54;99706.81;;;20.84;36.21
76603;BME280;65075;48.390;17.598;2023-05-10T13:20:20;99700.69;;;20.07;38.56
76603;BME280;65075;48.390;17.598;2023-05-10T13:22:46;99691.41;;;20.03;35.69
76603;BME280;65075;48.390;17.598;2023-05-10T13:25:12;99675.56;;;20.20;35.20
76603;BME280;65075;48.390;17.598;2023-05-10T13:27:41;99652.41;;;20.33;36.04